createdAt,value
2022-12-03T00:03:02.722Z,102586.88
2022-12-03T00:08:04.495Z,102578.69
2022-12-03T00:13:05.996Z,102574.59
2022-12-03T00:18:07.520Z,102567.88
2022-12-03T00:23:09.030Z,102562.03
2022-12-03T00:28:10.565Z,102562.91
2022-12-03T00:33:12.011Z,102559.72
2022-12-03T00:38:13.872Z,102556.94
2022-12-03T00:43:15.335Z,102552.50
2022-12-03T00:48:16.786Z,102541.94
2022-12-03T00:53:18.270Z,102550.22
2022-12-03T00:58:19.821Z,102539.00
2022-12-03T01:03:21.326Z,102532.66
2022-12-03T01:08:22.827Z,102532.34
2022-12-03T01:13:24.351Z,102536.00
2022-12-03T01:18:25.869Z,102535.34
2022-12-03T01:23:27.312Z,102518.81
2022-12-03T01:28:29.408Z,102526.34
2022-12-03T01:33:30.921Z,102519.91
2022-12-03T01:38:32.393Z,102516.53
2022-12-03T01:43:33.924Z,102513.34
2022-12-03T01:48:37.814Z,102504.44
2022-12-03T01:53:39.327Z,102509.44
2022-12-03T01:58:41.390Z,102498.34
2022-12-03T02:03:44.069Z,102502.72
2022-12-03T02:08:47.054Z,102496.03
2022-12-03T02:13:52.732Z,102496.03
2022-12-03T02:18:54.242Z,102493.44
2022-12-03T02:24:11.725Z,102484.38
2022-12-03T02:29:13.452Z,102488.97
2022-12-03T02:34:53.996Z,102480.09
2022-12-03T02:39:59.060Z,102479.22
2022-12-03T02:45:05.678Z,102474.44
2022-12-03T02:50:09.715Z,102476.59
2022-12-03T02:55:13.391Z,102479.44
2022-12-03T03:00:16.188Z,102481.22
2022-12-03T03:05:21.467Z,102475.25
2022-12-03T03:10:23.750Z,102477.19
2022-12-03T03:15:25.521Z,102468.75
2022-12-03T03:20:27.063Z,102471.28
2022-12-03T03:25:28.588Z,102468.22
2022-12-03T03:30:30.391Z,102465.84
2022-12-03T03:35:31.984Z,102464.88
2022-12-03T03:40:33.628Z,102456.06
2022-12-03T03:45:35.269Z,102473.78
2022-12-03T03:50:37.124Z,102453.53
2022-12-03T03:55:39.912Z,102457.28
2022-12-03T04:00:44.010Z,102452.03
2022-12-03T04:05:46.664Z,102455.91
2022-12-03T04:11:07.166Z,102445.84
2022-12-03T04:16:08.745Z,102446.72
2022-12-03T04:21:34.556Z,102454.72
2022-12-03T04:26:54.880Z,102443.69
2022-12-03T04:32:15.239Z,102438.44
2022-12-03T04:37:16.896Z,102439.50
2022-12-03T04:42:18.377Z,102433.25
2022-12-03T04:47:21.544Z,102436.91
2022-12-03T04:52:23.084Z,102428.09
2022-12-03T04:57:24.539Z,102426.41
2022-12-03T05:02:26.045Z,102425.78
2022-12-03T05:07:27.637Z,102420.13
2022-12-03T05:12:29.177Z,102432.34
2022-12-03T05:17:30.810Z,102419.31
2022-12-03T05:22:32.308Z,102421.50
2022-12-03T05:27:34.702Z,102408.28
2022-12-03T05:32:36.215Z,102413.56
2022-12-03T05:37:37.782Z,102401.06
2022-12-03T05:42:54.555Z,102410.50
2022-12-03T05:47:57.637Z,102407.69
2022-12-03T05:52:59.473Z,102408.28
2022-12-03T05:58:01.077Z,102398.75
2022-12-03T06:03:02.849Z,102392.06
2022-12-03T06:08:04.561Z,102395.38
2022-12-03T06:13:06.150Z,102378.09
2022-12-03T06:18:07.607Z,102386.56
2022-12-03T06:23:09.146Z,102378.28
2022-12-03T06:28:10.626Z,102375.44
2022-12-03T06:33:12.153Z,102374.00
2022-12-03T06:38:13.619Z,102380.13
2022-12-03T06:43:15.170Z,102379.31
2022-12-03T06:48:16.725Z,102377.00
2022-12-03T06:53:18.226Z,102382.47
2022-12-03T06:58:19.804Z,102380.94
2022-12-03T07:03:21.403Z,102372.59
2022-12-03T07:08:22.869Z,102379.09
2022-12-03T07:13:24.371Z,102375.78
2022-12-03T07:18:25.886Z,102372.91
2022-12-03T07:23:27.390Z,102382.19
2022-12-03T07:28:28.911Z,102373.22
2022-12-03T07:33:30.606Z,102385.59
2022-12-03T07:38:32.122Z,102384.50
2022-12-03T07:43:33.632Z,102375.91
2022-12-03T07:48:35.127Z,102386.06
2022-12-03T07:53:36.641Z,102390.19
2022-12-03T07:58:38.208Z,102373.44
2022-12-03T08:03:39.702Z,102371.00
2022-12-03T08:08:41.272Z,102366.00
2022-12-03T08:13:42.961Z,102368.78
2022-12-03T08:18:45.425Z,102360.31
2022-12-03T08:23:47.107Z,102361.00
2022-12-03T08:28:48.917Z,102365.31
2022-12-03T08:33:53.178Z,102366.16
2022-12-03T08:39:02.089Z,102361.97
2022-12-03T08:44:21.167Z,102369.47
2022-12-03T08:49:22.806Z,102382.09
2022-12-03T08:54:25.937Z,102362.25
2022-12-03T08:59:32.153Z,102360.19
2022-12-03T09:04:42.852Z,102354.66
2022-12-03T09:09:44.364Z,102360.69
2022-12-03T09:14:45.817Z,102362.53
2022-12-03T09:19:47.297Z,102370.22
2022-12-03T09:24:48.798Z,102357.69
2022-12-03T09:29:50.791Z,102362.94
2022-12-03T09:34:52.759Z,102355.63
2022-12-03T09:39:54.416Z,102359.25
2022-12-03T09:44:56.223Z,102341.53
2022-12-03T09:49:58.508Z,102346.88
2022-12-03T09:55:05.548Z,102350.13
2022-12-03T10:00:15.737Z,102351.31
2022-12-03T10:05:20.079Z,102343.50
2022-12-03T10:10:25.122Z,102352.03
2022-12-03T10:15:26.849Z,102350.56
2022-12-03T10:20:28.386Z,102341.34
2022-12-03T10:25:29.862Z,102347.34
2022-12-03T10:30:31.573Z,102339.56
2022-12-03T10:35:39.230Z,102341.34
2022-12-03T10:40:40.769Z,102339.97
2022-12-03T10:45:43.164Z,102323.00
2022-12-03T10:50:53.251Z,102328.06
2022-12-03T10:55:59.561Z,102322.91
2022-12-03T11:01:03.592Z,102320.72
2022-12-03T11:06:05.253Z,102311.88
2022-12-03T11:11:13.335Z,102310.91
2022-12-03T11:16:40.761Z,102300.81
2022-12-03T11:22:07.228Z,102299.66
2022-12-03T11:27:19.121Z,102298.97
2022-12-03T11:32:38.944Z,102297.41
2022-12-03T11:37:40.724Z,102281.66
2022-12-03T11:42:42.822Z,102279.44
2022-12-03T11:48:02.883Z,102268.38
2022-12-03T11:53:18.912Z,102261.69
2022-12-03T11:58:29.599Z,102263.50
2022-12-03T12:03:51.464Z,102245.75
2022-12-03T12:08:53.045Z,102240.16
2022-12-03T12:14:01.345Z,102245.19
2022-12-03T12:19:29.134Z,102228.19
2022-12-03T12:24:43.191Z,102232.19
2022-12-03T12:29:50.519Z,102213.41
2022-12-03T12:35:00.375Z,102214.28
2022-12-03T12:40:11.607Z,102210.63
2022-12-03T12:45:27.576Z,102212.22
2022-12-03T12:50:31.728Z,102218.25
2022-12-03T12:55:33.251Z,102216.00
2022-12-03T13:00:34.783Z,102207.91
2022-12-03T13:05:42.338Z,102211.81
2022-12-03T13:10:43.866Z,102209.78
2022-12-03T13:15:49.354Z,102214.41
2022-12-03T13:20:50.953Z,102194.25
2022-12-03T13:26:07.417Z,102202.56
2022-12-03T13:31:34.015Z,102184.69
2022-12-03T13:36:41.307Z,102188.38
2022-12-03T13:42:01.694Z,102180.69
2022-12-03T13:47:13.937Z,102172.28
2022-12-03T13:52:19.574Z,102166.06
2022-12-03T13:57:23.786Z,102166.13
2022-12-03T14:02:25.372Z,102159.13
2022-12-03T14:07:26.928Z,102156.34
2022-12-03T14:12:33.529Z,102148.72
2022-12-03T14:17:35.091Z,102150.31
2022-12-03T14:22:39.461Z,102138.13
2022-12-03T14:27:41.000Z,102148.50
2022-12-03T14:32:42.533Z,102146.19
2022-12-03T14:37:44.112Z,102150.38
2022-12-03T14:42:45.679Z,102146.81
2022-12-03T14:47:47.208Z,102153.19
2022-12-03T14:52:48.701Z,102145.84
2022-12-03T14:57:50.276Z,102147.13
2022-12-03T15:02:54.240Z,102133.59
2022-12-03T15:07:57.928Z,102139.50
2022-12-03T15:12:59.528Z,102130.53
2022-12-03T15:18:01.053Z,102129.09
2022-12-03T15:23:02.517Z,102127.78
2022-12-03T15:28:05.425Z,102124.84
2022-12-03T15:33:06.961Z,102131.03
2022-12-03T15:38:09.413Z,102129.63
2022-12-03T15:43:11.792Z,102127.19
2022-12-03T15:48:13.822Z,102132.41
2022-12-03T15:53:15.387Z,102135.41
2022-12-03T15:58:16.839Z,102129.09
2022-12-03T16:03:18.656Z,102128.56
2022-12-03T16:08:20.216Z,102133.53
2022-12-03T16:13:21.739Z,102144.06
2022-12-03T16:18:23.219Z,102143.97
2022-12-03T16:23:24.727Z,102132.28
2022-12-03T16:28:41.306Z,102139.34
2022-12-03T16:33:42.819Z,102139.31
2022-12-03T16:38:44.358Z,102138.06
2022-12-03T16:43:48.376Z,102135.97
2022-12-03T16:48:50.169Z,102141.84
2022-12-03T16:53:51.826Z,102139.31
2022-12-03T16:58:53.317Z,102138.25
2022-12-03T17:03:54.860Z,102138.47
2022-12-03T17:08:56.377Z,102145.72
2022-12-03T17:13:57.916Z,102139.56
2022-12-03T17:18:59.401Z,102147.47
2022-12-03T17:24:00.939Z,102142.47
2022-12-03T17:29:02.414Z,102138.91
2022-12-03T17:34:03.892Z,102146.16
2022-12-03T17:39:05.366Z,102127.59
2022-12-03T17:44:10.673Z,102134.59
2022-12-03T17:49:13.638Z,102137.44
2022-12-03T17:54:15.170Z,102137.28
2022-12-03T17:59:16.713Z,102139.31
2022-12-03T18:04:18.251Z,102133.78
2022-12-03T18:09:19.848Z,102136.94
2022-12-03T18:14:21.385Z,102140.94
2022-12-03T18:19:23.012Z,102129.59
2022-12-03T18:24:25.240Z,102127.78
2022-12-03T18:29:26.754Z,102116.03
2022-12-03T18:34:28.271Z,102118.91
2022-12-03T18:39:36.130Z,102116.84
2022-12-03T18:44:37.491Z,102110.56
2022-12-03T18:49:39.215Z,102113.84
2022-12-03T18:54:40.787Z,102107.75
2022-12-03T18:59:42.391Z,102104.59
2022-12-03T19:04:44.185Z,102109.41
2022-12-03T19:09:45.698Z,102102.28
2022-12-03T19:14:48.226Z,102097.38
2022-12-03T19:19:49.728Z,102088.78
2022-12-03T19:24:51.270Z,102084.09
2022-12-03T19:29:52.925Z,102082.28
2022-12-03T19:34:54.715Z,102079.06
2022-12-03T19:39:56.560Z,102090.03
2022-12-03T19:44:58.355Z,102075.31
2022-12-03T19:49:59.867Z,102065.50
2022-12-03T19:55:02.068Z,102074.22
2022-12-03T20:00:05.372Z,102079.50
2022-12-03T20:05:07.509Z,102072.84
2022-12-03T20:10:09.345Z,102067.59
2022-12-03T20:15:12.404Z,102071.19
2022-12-03T20:20:13.987Z,102072.84
2022-12-03T20:25:15.499Z,102075.00
2022-12-03T20:30:17.068Z,102087.41
2022-12-03T20:35:18.697Z,102067.69
2022-12-03T20:40:20.170Z,102054.13
2022-12-03T20:45:21.641Z,102060.78
2022-12-03T20:50:23.182Z,102061.53
2022-12-03T20:55:24.691Z,102058.41
2022-12-03T21:00:26.289Z,102058.97
2022-12-03T21:05:27.868Z,102066.03
2022-12-03T21:10:44.784Z,102061.31
2022-12-03T21:15:46.424Z,102055.34
2022-12-03T21:20:47.954Z,102063.69
2022-12-03T21:25:49.536Z,102048.19
2022-12-03T21:30:54.608Z,102041.75
2022-12-03T21:35:56.707Z,102045.94
2022-12-03T21:40:59.112Z,102050.16
2022-12-03T21:46:05.234Z,102045.19
2022-12-03T21:51:26.620Z,102041.06
2022-12-03T21:56:30.819Z,102035.59
2022-12-03T22:01:32.470Z,102035.72
2022-12-03T22:06:34.045Z,102033.78
2022-12-03T22:11:35.596Z,102025.19
2022-12-03T22:16:37.630Z,102028.38
2022-12-03T22:21:39.228Z,102028.94
2022-12-03T22:26:40.843Z,102026.25
2022-12-03T22:31:42.364Z,102027.13
2022-12-03T22:36:43.900Z,102024.28
2022-12-03T22:41:45.375Z,102029.44
2022-12-03T22:46:46.979Z,102028.16
2022-12-03T22:51:48.690Z,102028.28
2022-12-03T22:56:50.192Z,102024.03
2022-12-03T23:01:51.721Z,102029.53
2022-12-03T23:06:53.235Z,102037.75
2022-12-03T23:11:54.841Z,102028.38
2022-12-03T23:16:56.360Z,102031.16
2022-12-03T23:21:58.099Z,102036.22
2022-12-03T23:26:59.559Z,102011.06
2022-12-03T23:32:01.095Z,102004.81
2022-12-03T23:37:02.653Z,102010.22
2022-12-03T23:42:04.169Z,102006.13
2022-12-03T23:47:06.160Z,102013.22
2022-12-03T23:52:07.767Z,102013.44
2022-12-03T23:57:09.309Z,102018.88
